<?xml version='1.0' encoding='UTF-8'?><gpx version="1.1" creator="JPX - https://github.com/jenetics/jpx" xmlns="http://www.topografix.com/GPX/1/1"><trk><trkseg><trkpt lat="45.229688774502684" lon="7.848836603568699"><ele>204.99999999999997</ele><time>2026-04-25T11:28:53.998Z</time></trkpt><trkpt lat="45.22977758322602" lon="7.848848569496242"><ele>205.0</ele><time>2026-04-25T11:28:55.998Z</time></trkpt><trkpt lat="45.229896251693376" lon="7.8488710271671005"><ele>205.0</ele><time>2026-04-25T11:28:57.998Z</time></trkpt><trkpt lat="45.22996336223138" lon="7.848887097925219"><ele>205.0</ele><time>2026-04-25T11:28:58.998Z</time></trkpt><trkpt lat="45.230036483009094" lon="7.848888379372324"><ele>204.99999999999997</ele><time>2026-04-25T11:28:59.998Z</time></trkpt><trkpt lat="45.23010172402124" lon="7.848894099723097"><ele>205.0</ele><time>2026-04-25T11:29:00.998Z</time></trkpt><trkpt lat="45.230170845015394" lon="7.848901497208208"><ele>204.99999999999997</ele><time>2026-04-25T11:29:01.998Z</time></trkpt><trkpt lat="45.23023927956166" lon="7.848894117788926"><ele>205.0</ele><time>2026-04-25T11:29:02.998Z</time></trkpt><trkpt lat="45.23030617286393" lon="7.848881369008919"><ele>205.0</ele><time>2026-04-25T11:29:03.998Z</time></trkpt><trkpt lat="45.23043063415318" lon="7.848863515385536"><ele>205.0</ele><time>2026-04-25T11:29:05.998Z</time></trkpt><trkpt lat="45.23050237494581" lon="7.848851596583652"><ele>204.99999999999997</ele><time>2026-04-25T11:29:06.998Z</time></trkpt><trkpt lat="45.230573169405204" lon="7.848838031692252"><ele>205.0</ele><time>2026-04-25T11:29:07.998Z</time></trkpt><trkpt lat="45.23064480129246" lon="7.848823604150183"><ele>205.14285714285714</ele><time>2026-04-25T11:29:08.998Z</time></trkpt><trkpt lat="45.230716518298934" lon="7.84881715264943"><ele>205.28571428571428</ele><time>2026-04-25T11:29:09.998Z</time></trkpt><trkpt lat="45.23078925094624" lon="7.848813306993789"><ele>205.42857142857142</ele><time>2026-04-25T11:29:10.999Z</time></trkpt><trkpt lat="45.230858947862515" lon="7.848796809886437"><ele>205.57142857142856</ele><time>2026-04-25T11:29:11.999Z</time></trkpt><trkpt lat="45.23092291954341" lon="7.848758965031125"><ele>205.71428571428572</ele><time>2026-04-25T11:29:12.999Z</time></trkpt><trkpt lat="45.23097658700299" lon="7.8486811773173235"><ele>205.85714285714283</ele><time>2026-04-25T11:29:13.999Z</time></trkpt><trkpt lat="45.23103610773182" lon="7.848636057777044"><ele>206.0</ele><time>2026-04-25T11:29:14.999Z</time></trkpt><trkpt lat="45.23110085944559" lon="7.848572746967631"><ele>205.60000000000002</ele><time>2026-04-25T11:29:16.999Z</time></trkpt><trkpt lat="45.23108208028308" lon="7.8483653663347255"><ele>205.2</ele><time>2026-04-25T11:29:18.999Z</time></trkpt><trkpt lat="45.2310289226594" lon="7.848183718384222"><ele>204.8</ele><time>2026-04-25T11:29:20.999Z</time></trkpt><trkpt lat="45.23100849629957" lon="7.84808214553406"><ele>204.39999999999998</ele><time>2026-04-25T11:29:21.999Z</time></trkpt><trkpt lat="45.23098430447017" lon="7.847969702264629"><ele>204.0</ele><time>2026-04-25T11:29:22.999Z</time></trkpt><trkpt lat="45.23095438463079" lon="7.847850767101751"><ele>204.0</ele><time>2026-04-25T11:29:23.999Z</time></trkpt><trkpt lat="45.23092378466133" lon="7.847726649372018"><ele>204.0</ele><time>2026-04-25T11:29:24.999Z</time></trkpt><trkpt lat="45.23089441211583" lon="7.847613493930671"><ele>204.0</ele><time>2026-04-25T11:29:25.999Z</time></trkpt><trkpt lat="45.23086334948559" lon="7.847493601765932"><ele>204.0</ele><time>2026-04-25T11:29:26.999Z</time></trkpt><trkpt lat="45.230830537301905" lon="7.847372882457924"><ele>204.0</ele><time>2026-04-25T11:29:27.999Z</time></trkpt><trkpt lat="45.2307867785107" lon="7.8472583838345615"><ele>204.0</ele><time>2026-04-25T11:29:28.999Z</time></trkpt><trkpt lat="45.230729061012916" lon="7.8471482339947825"><ele>204.0</ele><time>2026-04-25T11:29:29.999Z</time></trkpt><trkpt lat="45.230661965853315" lon="7.847030625295339"><ele>204.0</ele><time>2026-04-25T11:29:30.999Z</time></trkpt><trkpt lat="45.23059748756287" lon="7.8469203809039"><ele>204.0</ele><time>2026-04-25T11:29:31.999Z</time></trkpt><trkpt lat="45.23052841152587" lon="7.84680980970934"><ele>204.0</ele><time>2026-04-25T11:29:32.999Z</time></trkpt><trkpt lat="45.230456239820874" lon="7.846696993331752"><ele>204.0</ele><time>2026-04-25T11:29:33.999Z</time></trkpt><trkpt lat="45.23038424832625" lon="7.846586194670552"><ele>204.0</ele><time>2026-04-25T11:29:34.999Z</time></trkpt><trkpt lat="45.23031208768397" lon="7.8464765741969815"><ele>204.0</ele><time>2026-04-25T11:29:35.999Z</time></trkpt><trkpt lat="45.23023972922637" lon="7.8463703936054126"><ele>204.0</ele><time>2026-04-25T11:29:36.999Z</time></trkpt><trkpt lat="45.2301694484467" lon="7.846272185526111"><ele>204.0</ele><time>2026-04-25T11:29:37.999Z</time></trkpt><trkpt lat="45.230095192072056" lon="7.84616929389688"><ele>204.0</ele><time>2026-04-25T11:29:38.999Z</time></trkpt><trkpt lat="45.23003033598244" lon="7.846076720658274"><ele>204.0</ele><time>2026-04-25T11:29:39.999Z</time></trkpt><trkpt lat="45.22996440605063" lon="7.845968540562665"><ele>204.0</ele><time>2026-04-25T11:29:40.999Z</time></trkpt><trkpt lat="45.229900942366676" lon="7.845856154794346"><ele>204.0</ele><time>2026-04-25T11:29:41.999Z</time></trkpt><trkpt lat="45.22984615757669" lon="7.845745699012997"><ele>204.0</ele><time>2026-04-25T11:29:42.999Z</time></trkpt><trkpt lat="45.22979346326278" lon="7.8456319475268295"><ele>203.79999999999998</ele><time>2026-04-25T11:29:43.999Z</time></trkpt><trkpt lat="45.22975231240394" lon="7.845511847263499"><ele>203.6</ele><time>2026-04-25T11:29:44.999Z</time></trkpt><trkpt lat="45.22972407008609" lon="7.845409235960153"><ele>203.4</ele><time>2026-04-25T11:29:45.999Z</time></trkpt><trkpt lat="45.229694525833274" lon="7.845279307556613"><ele>203.2</ele><time>2026-04-25T11:29:46.999Z</time></trkpt><trkpt lat="45.22967037800902" lon="7.845154381067997"><ele>203.0</ele><time>2026-04-25T11:29:47.999Z</time></trkpt><trkpt lat="45.22964454988638" lon="7.845024436880585"><ele>203.0</ele><time>2026-04-25T11:29:48.999Z</time></trkpt><trkpt lat="45.22962178618888" lon="7.844899958793378"><ele>203.0</ele><time>2026-04-25T11:29:49.999Z</time></trkpt><trkpt lat="45.22959907980047" lon="7.84477254475268"><ele>203.0</ele><time>2026-04-25T11:29:50.999Z</time></trkpt><trkpt lat="45.2295772804917" lon="7.84464756196067"><ele>203.0</ele><time>2026-04-25T11:29:51.999Z</time></trkpt><trkpt lat="45.22955442765087" lon="7.844516539065306"><ele>203.0</ele><time>2026-04-25T11:29:52.999Z</time></trkpt><trkpt lat="45.229532109923724" lon="7.844384347003568"><ele>203.0</ele><time>2026-04-25T11:29:53.999Z</time></trkpt><trkpt lat="45.229509304385694" lon="7.84424894194741"><ele>203.0</ele><time>2026-04-25T11:29:54.999Z</time></trkpt><trkpt lat="45.22948786625974" lon="7.844116801792214"><ele>203.0</ele><time>2026-04-25T11:29:55.999Z</time></trkpt><trkpt lat="45.229464696330055" lon="7.843973233135328"><ele>203.0</ele><time>2026-04-25T11:29:56.999Z</time></trkpt><trkpt lat="45.22944349295603" lon="7.843841849773414"><ele>203.0</ele><time>2026-04-25T11:29:57.999Z</time></trkpt><trkpt lat="45.22942063308583" lon="7.843700202176947"><ele>203.0</ele><time>2026-04-25T11:29:58.999Z</time></trkpt><trkpt lat="45.229398451362414" lon="7.843561030265116"><ele>203.0</ele><time>2026-04-25T11:29:59.999Z</time></trkpt><trkpt lat="45.22937740248925" lon="7.843422155580275"><ele>203.0</ele><time>2026-04-25T11:30:00.999Z</time></trkpt><trkpt lat="45.229355617196255" lon="7.843278422914055"><ele>203.0</ele><time>2026-04-25T11:30:01.999Z</time></trkpt><trkpt lat="45.229334478907255" lon="7.8431328308429284"><ele>203.0</ele><time>2026-04-25T11:30:02.999Z</time></trkpt><trkpt lat="45.2293150495203" lon="7.842987483524336"><ele>202.8</ele><time>2026-04-25T11:30:03.999Z</time></trkpt><trkpt lat="45.22929700445459" lon="7.842843225947714"><ele>202.60000000000002</ele><time>2026-04-25T11:30:04.999Z</time></trkpt><trkpt lat="45.22928353738956" lon="7.842708205902171"><ele>202.39999999999998</ele><time>2026-04-25T11:30:05.999Z</time></trkpt><trkpt lat="45.22927066974084" lon="7.842560278644767"><ele>202.2</ele><time>2026-04-25T11:30:06.999Z</time></trkpt><trkpt lat="45.229258778056796" lon="7.8424223322375015"><ele>202.0</ele><time>2026-04-25T11:30:07.999Z</time></trkpt><trkpt lat="45.22924711979417" lon="7.842282528304833"><ele>202.0</ele><time>2026-04-25T11:30:08.999Z</time></trkpt><trkpt lat="45.229222269018635" lon="7.842144587869862"><ele>202.0</ele><time>2026-04-25T11:30:09.999Z</time></trkpt><trkpt lat="45.22922812631122" lon="7.842005147835846"><ele>202.0</ele><time>2026-04-25T11:30:10.999Z</time></trkpt><trkpt lat="45.22921862487655" lon="7.841863915666873"><ele>202.0</ele><time>2026-04-25T11:30:11.999Z</time></trkpt><trkpt lat="45.229201018853345" lon="7.841712664928188"><ele>202.0</ele><time>2026-04-25T11:30:12.999Z</time></trkpt><trkpt lat="45.229152078451975" lon="7.841578285628762"><ele>202.0</ele><time>2026-04-25T11:30:13.999Z</time></trkpt><trkpt lat="45.22910905811559" lon="7.841448533181146"><ele>202.0</ele><time>2026-04-25T11:30:14.999Z</time></trkpt><trkpt lat="45.22904599780008" lon="7.841329746287335"><ele>202.0</ele><time>2026-04-25T11:30:15.999Z</time></trkpt><trkpt lat="45.228989532748955" lon="7.841210175029005"><ele>202.0</ele><time>2026-04-25T11:30:16.999Z</time></trkpt><trkpt lat="45.22891475299482" lon="7.841110688157669"><ele>202.0</ele><time>2026-04-25T11:30:17.999Z</time></trkpt><trkpt lat="45.22882775099446" lon="7.841022187281242"><ele>202.2</ele><time>2026-04-25T11:30:18.999Z</time></trkpt><trkpt lat="45.228756892513815" lon="7.840947917721971"><ele>202.39999999999998</ele><time>2026-04-25T11:30:19.999Z</time></trkpt><trkpt lat="45.22868030443006" lon="7.840882193860353"><ele>202.60000000000002</ele><time>2026-04-25T11:30:20.999Z</time></trkpt><trkpt lat="45.228629471061794" lon="7.840769788149284"><ele>202.8</ele><time>2026-04-25T11:30:21.999Z</time></trkpt><trkpt lat="45.2285596063256" lon="7.84065712761498"><ele>203.0</ele><time>2026-04-25T11:30:22.999Z</time></trkpt><trkpt lat="45.22850909947853" lon="7.840533172392036"><ele>203.00000000000003</ele><time>2026-04-25T11:30:23.999Z</time></trkpt><trkpt lat="45.22847122630282" lon="7.840400491178036"><ele>203.0</ele><time>2026-04-25T11:30:24.999Z</time></trkpt><trkpt lat="45.22847117550278" lon="7.840254944536874"><ele>203.0</ele><time>2026-04-25T11:30:25.999Z</time></trkpt><trkpt lat="45.22847468778989" lon="7.840144064396828"><ele>203.0</ele><time>2026-04-25T11:30:26.999Z</time></trkpt><trkpt lat="45.2284775046173" lon="7.840033741882035"><ele>203.00000000000003</ele><time>2026-04-25T11:30:27.999Z</time></trkpt><trkpt lat="45.22848180432493" lon="7.8399066071303425"><ele>203.0</ele><time>2026-04-25T11:30:28.999Z</time></trkpt><trkpt lat="45.22846989263669" lon="7.839775845382917"><ele>203.0</ele><time>2026-04-25T11:30:29.999Z</time></trkpt><trkpt lat="45.22848116703991" lon="7.839631465270801"><ele>203.0</ele><time>2026-04-25T11:30:30.999Z</time></trkpt><trkpt lat="45.22849587711361" lon="7.83949601255999"><ele>203.0</ele><time>2026-04-25T11:30:31.999Z</time></trkpt><trkpt lat="45.228512997673896" lon="7.839348607104971"><ele>203.0</ele><time>2026-04-25T11:30:32.999Z</time></trkpt><trkpt lat="45.22850394737643" lon="7.839213505265209"><ele>203.0</ele><time>2026-04-25T11:30:33.999Z</time></trkpt><trkpt lat="45.22851462956171" lon="7.839069617590685"><ele>203.0</ele><time>2026-04-25T11:30:34.999Z</time></trkpt><trkpt lat="45.22852138481869" lon="7.838932187508455"><ele>203.0</ele><time>2026-04-25T11:30:36Z</time></trkpt><trkpt lat="45.22851985427066" lon="7.8387872088435815"><ele>203.0</ele><time>2026-04-25T11:30:37Z</time></trkpt><trkpt lat="45.22851689486356" lon="7.83863848621755"><ele>203.0</ele><time>2026-04-25T11:30:38Z</time></trkpt><trkpt lat="45.228502957845905" lon="7.8385006128609875"><ele>203.0</ele><time>2026-04-25T11:30:39Z</time></trkpt><trkpt lat="45.2284531170054" lon="7.838333310070771"><ele>202.60000000000002</ele><time>2026-04-25T11:30:40Z</time></trkpt><trkpt lat="45.2284199076074" lon="7.838208709046488"><ele>202.20000000000002</ele><time>2026-04-25T11:30:41Z</time></trkpt><trkpt lat="45.2283792240244" lon="7.838074418468079"><ele>201.8</ele><time>2026-04-25T11:30:42Z</time></trkpt><trkpt lat="45.228347974789735" lon="7.837946461041857"><ele>201.4</ele><time>2026-04-25T11:30:43Z</time></trkpt><trkpt lat="45.22832271507755" lon="7.837801511606699"><ele>201.0</ele><time>2026-04-25T11:30:44Z</time></trkpt><trkpt lat="45.22831399291933" lon="7.837657727917769"><ele>201.4</ele><time>2026-04-25T11:30:45Z</time></trkpt><trkpt lat="45.22831897796121" lon="7.837505676250899"><ele>201.8</ele><time>2026-04-25T11:30:46Z</time></trkpt><trkpt lat="45.22833081015729" lon="7.837350397537179"><ele>202.20000000000002</ele><time>2026-04-25T11:30:47Z</time></trkpt><trkpt lat="45.22832344563768" lon="7.837195146273767"><ele>202.60000000000002</ele><time>2026-04-25T11:30:48Z</time></trkpt><trkpt lat="45.228328993462696" lon="7.837039505722165"><ele>203.0</ele><time>2026-04-25T11:30:49Z</time></trkpt><trkpt lat="45.22834704569298" lon="7.836877233495846"><ele>203.2</ele><time>2026-04-25T11:30:50Z</time></trkpt><trkpt lat="45.228343560818196" lon="7.836711368196782"><ele>203.4</ele><time>2026-04-25T11:30:51Z</time></trkpt><trkpt lat="45.228336250584135" lon="7.836550457035382"><ele>203.6</ele><time>2026-04-25T11:30:51.998Z</time></trkpt><trkpt lat="45.228329147318235" lon="7.836394101633388"><ele>203.79999999999998</ele><time>2026-04-25T11:30:52.998Z</time></trkpt><trkpt lat="45.22832828902625" lon="7.836244254046714"><ele>204.0</ele><time>2026-04-25T11:30:53.998Z</time></trkpt><trkpt lat="45.228337570572165" lon="7.836113504124697"><ele>204.0</ele><time>2026-04-25T11:30:54.998Z</time></trkpt><trkpt lat="45.22835385953845" lon="7.8359865465780265"><ele>204.0</ele><time>2026-04-25T11:30:55.998Z</time></trkpt><trkpt lat="45.228381956542904" lon="7.835859375398203"><ele>204.0</ele><time>2026-04-25T11:30:56.998Z</time></trkpt><trkpt lat="45.22841334795122" lon="7.835746443402124"><ele>204.0</ele><time>2026-04-25T11:30:57.998Z</time></trkpt><trkpt lat="45.22844587092772" lon="7.835654994050215"><ele>204.0</ele><time>2026-04-25T11:30:58.998Z</time></trkpt><trkpt lat="45.228477252986266" lon="7.835562070564848"><ele>204.0</ele><time>2026-04-25T11:30:59.998Z</time></trkpt><trkpt lat="45.22854094764624" lon="7.835484254338159"><ele>204.0</ele><time>2026-04-25T11:31:01.998Z</time></trkpt><trkpt lat="45.22864153584053" lon="7.835583230476932"><ele>204.0</ele><time>2026-04-25T11:31:03.998Z</time></trkpt><trkpt lat="45.22870249247088" lon="7.835651530972083"><ele>204.0</ele><time>2026-04-25T11:31:04.998Z</time></trkpt><trkpt lat="45.2287760448239" lon="7.8356949838562"><ele>204.0</ele><time>2026-04-25T11:31:05.998Z</time></trkpt><trkpt lat="45.22885725093053" lon="7.835716439827542"><ele>204.0</ele><time>2026-04-25T11:31:06.998Z</time></trkpt><trkpt lat="45.2289410106211" lon="7.835731562749488"><ele>204.0</ele><time>2026-04-25T11:31:07.998Z</time></trkpt><trkpt lat="45.22902560069033" lon="7.835733608273545"><ele>203.83333333333334</ele><time>2026-04-25T11:31:08.998Z</time></trkpt><trkpt lat="45.22910602332974" lon="7.835717864464428"><ele>203.66666666666669</ele><time>2026-04-25T11:31:09.998Z</time></trkpt><trkpt lat="45.229184612852094" lon="7.835695277020547"><ele>203.5</ele><time>2026-04-25T11:31:10.998Z</time></trkpt><trkpt lat="45.229268837658516" lon="7.8356783676008614"><ele>203.33333333333334</ele><time>2026-04-25T11:31:11.999Z</time></trkpt><trkpt lat="45.22935587102497" lon="7.8356573971784576"><ele>203.16666666666669</ele><time>2026-04-25T11:31:12.999Z</time></trkpt><trkpt lat="45.22943862419599" lon="7.835615402357465"><ele>203.0</ele><time>2026-04-25T11:31:13.999Z</time></trkpt><trkpt lat="45.229515562412004" lon="7.835549015900544"><ele>203.00000000000003</ele><time>2026-04-25T11:31:14.999Z</time></trkpt><trkpt lat="45.229591801895445" lon="7.8354813961208984"><ele>203.0</ele><time>2026-04-25T11:31:15.999Z</time></trkpt><trkpt lat="45.229664869065026" lon="7.835424156261744"><ele>203.0</ele><time>2026-04-25T11:31:16.999Z</time></trkpt><trkpt lat="45.22974352772148" lon="7.835374178835418"><ele>203.0</ele><time>2026-04-25T11:31:17.999Z</time></trkpt><trkpt lat="45.229825800847195" lon="7.835320806075354"><ele>203.00000000000003</ele><time>2026-04-25T11:31:18.999Z</time></trkpt><trkpt lat="45.22991128242959" lon="7.835263197928228"><ele>203.0</ele><time>2026-04-25T11:31:19.999Z</time></trkpt><trkpt lat="45.229996544061315" lon="7.835208627479053"><ele>203.0</ele><time>2026-04-25T11:31:20.999Z</time></trkpt><trkpt lat="45.23008174023705" lon="7.835155622088713"><ele>203.0</ele><time>2026-04-25T11:31:21.999Z</time></trkpt><trkpt lat="45.230169959031464" lon="7.835100842163506"><ele>203.0</ele><time>2026-04-25T11:31:22.999Z</time></trkpt><trkpt lat="45.23025842688843" lon="7.835052753443799"><ele>203.0</ele><time>2026-04-25T11:31:23.999Z</time></trkpt><trkpt lat="45.23035957944069" lon="7.835015094730592"><ele>203.0</ele><time>2026-04-25T11:31:24.999Z</time></trkpt><trkpt lat="45.23045694160663" lon="7.834991693439104"><ele>203.0</ele><time>2026-04-25T11:31:25.999Z</time></trkpt><trkpt lat="45.23054122046507" lon="7.8349644245364525"><ele>203.0</ele><time>2026-04-25T11:31:26.999Z</time></trkpt><trkpt lat="45.23063715043286" lon="7.8349401161375525"><ele>203.0</ele><time>2026-04-25T11:31:27.999Z</time></trkpt><trkpt lat="45.23073077508496" lon="7.834916394003233"><ele>203.0</ele><time>2026-04-25T11:31:28.999Z</time></trkpt><trkpt lat="45.23083242973208" lon="7.834896660475082"><ele>203.0</ele><time>2026-04-25T11:31:29.999Z</time></trkpt><trkpt lat="45.230935686534984" lon="7.834879783173091"><ele>203.2</ele><time>2026-04-25T11:31:30.999Z</time></trkpt><trkpt lat="45.23103173878584" lon="7.834864299370873"><ele>203.4</ele><time>2026-04-25T11:31:31.999Z</time></trkpt><trkpt lat="45.23113993263765" lon="7.834846584916198"><ele>203.6</ele><time>2026-04-25T11:31:32.999Z</time></trkpt><trkpt lat="45.23123778109001" lon="7.834832345486997"><ele>203.79999999999998</ele><time>2026-04-25T11:31:33.999Z</time></trkpt><trkpt lat="45.2313385325031" lon="7.834818628421042"><ele>204.0</ele><time>2026-04-25T11:31:34.999Z</time></trkpt><trkpt lat="45.23143667922769" lon="7.834806229803318"><ele>204.39999999999998</ele><time>2026-04-25T11:31:35.999Z</time></trkpt><trkpt lat="45.231530361009064" lon="7.834792721534508"><ele>204.8</ele><time>2026-04-25T11:31:36.999Z</time></trkpt><trkpt lat="45.23162728440567" lon="7.8347729558499575"><ele>205.2</ele><time>2026-04-25T11:31:37.999Z</time></trkpt><trkpt lat="45.231725869074495" lon="7.8347537311041675"><ele>205.60000000000002</ele><time>2026-04-25T11:31:38.999Z</time></trkpt><trkpt lat="45.23182571053511" lon="7.834727657192411"><ele>206.0</ele><time>2026-04-25T11:31:39.999Z</time></trkpt><trkpt lat="45.231921652531945" lon="7.834712836753658"><ele>206.0</ele><time>2026-04-25T11:31:40.999Z</time></trkpt><trkpt lat="45.23201551538162" lon="7.834695475102888"><ele>206.0</ele><time>2026-04-25T11:31:41.999Z</time></trkpt><trkpt lat="45.23210649252293" lon="7.834675125422283"><ele>206.0</ele><time>2026-04-25T11:31:42.999Z</time></trkpt><trkpt lat="45.232205792679686" lon="7.834656207357877"><ele>206.0</ele><time>2026-04-25T11:31:43.999Z</time></trkpt><trkpt lat="45.2322766507877" lon="7.834649928030052"><ele>206.0</ele><time>2026-04-25T11:31:44.999Z</time></trkpt><trkpt lat="45.23238224612445" lon="7.8346158791689815"><ele>205.8</ele><time>2026-04-25T11:31:46.999Z</time></trkpt><trkpt lat="45.23246003978847" lon="7.8345897891705185"><ele>205.60000000000002</ele><time>2026-04-25T11:31:48.999Z</time></trkpt><trkpt lat="45.23249264697412" lon="7.83437573340847"><ele>205.4</ele><time>2026-04-25T11:31:51Z</time></trkpt><trkpt lat="45.23249782442695" lon="7.834261674929756"><ele>205.2</ele><time>2026-04-25T11:31:52Z</time></trkpt><trkpt lat="45.23250547635796" lon="7.834133419165425"><ele>205.0</ele><time>2026-04-25T11:31:53Z</time></trkpt><trkpt lat="45.23251359009427" lon="7.8340093752464925"><ele>204.8</ele><time>2026-04-25T11:31:54Z</time></trkpt><trkpt lat="45.23252235606951" lon="7.833875359827173"><ele>204.6</ele><time>2026-04-25T11:31:55Z</time></trkpt><trkpt lat="45.232530292202306" lon="7.833739752350727"><ele>204.39999999999998</ele><time>2026-04-25T11:31:56Z</time></trkpt><trkpt lat="45.23253752004017" lon="7.833614936584753"><ele>204.2</ele><time>2026-04-25T11:31:57Z</time></trkpt><trkpt lat="45.23254622833255" lon="7.833468052758317"><ele>204.0</ele><time>2026-04-25T11:31:58Z</time></trkpt><trkpt lat="45.23255501694425" lon="7.83332058956167"><ele>204.0</ele><time>2026-04-25T11:31:59Z</time></trkpt><trkpt lat="45.232552137672734" lon="7.833180312715822"><ele>204.0</ele><time>2026-04-25T11:32:00Z</time></trkpt><trkpt lat="45.2325614939161" lon="7.833027535934286"><ele>204.0</ele><time>2026-04-25T11:32:01Z</time></trkpt><trkpt lat="45.23258771210982" lon="7.832871206985657"><ele>204.0</ele><time>2026-04-25T11:32:02Z</time></trkpt><trkpt lat="45.232599849889446" lon="7.832731434584922"><ele>204.0</ele><time>2026-04-25T11:32:03Z</time></trkpt><trkpt lat="45.2326117152589" lon="7.832599345709341"><ele>204.2</ele><time>2026-04-25T11:32:04Z</time></trkpt><trkpt lat="45.232611620393435" lon="7.832441273222792"><ele>204.39999999999998</ele><time>2026-04-25T11:32:05Z</time></trkpt><trkpt lat="45.232630569705414" lon="7.8322871157599625"><ele>204.6</ele><time>2026-04-25T11:32:06Z</time></trkpt><trkpt lat="45.23265396778295" lon="7.832148752062226"><ele>204.8</ele><time>2026-04-25T11:32:07Z</time></trkpt><trkpt lat="45.232677429282745" lon="7.83199805421068"><ele>205.0</ele><time>2026-04-25T11:32:08Z</time></trkpt><trkpt lat="45.23270241892811" lon="7.831860870838269"><ele>205.2</ele><time>2026-04-25T11:32:09Z</time></trkpt><trkpt lat="45.23272658445723" lon="7.831728375397883"><ele>205.4</ele><time>2026-04-25T11:32:10Z</time></trkpt><trkpt lat="45.23275247569636" lon="7.831594396954971"><ele>205.60000000000002</ele><time>2026-04-25T11:32:11Z</time></trkpt><trkpt lat="45.23277583160134" lon="7.831506355196628"><ele>205.8</ele><time>2026-04-25T11:32:12Z</time></trkpt><trkpt lat="45.23282362050339" lon="7.83142545069353"><ele>206.0</ele><time>2026-04-25T11:32:13Z</time></trkpt><trkpt lat="45.2329211921832" lon="7.831330385770143"><ele>206.0</ele><time>2026-04-25T11:32:15Z</time></trkpt><trkpt lat="45.23300467801549" lon="7.8313301808621665"><ele>206.0</ele><time>2026-04-25T11:32:16Z</time></trkpt><trkpt lat="45.23309267589679" lon="7.83131804960109"><ele>206.0</ele><time>2026-04-25T11:32:17Z</time></trkpt><trkpt lat="45.23317438201847" lon="7.831306486471428"><ele>206.0</ele><time>2026-04-25T11:32:18Z</time></trkpt><trkpt lat="45.233277678404484" lon="7.83129051081697"><ele>206.0</ele><time>2026-04-25T11:32:19Z</time></trkpt><trkpt lat="45.23337093799472" lon="7.831276218833051"><ele>206.0</ele><time>2026-04-25T11:32:20Z</time></trkpt><trkpt lat="45.23346562890863" lon="7.831261358500984"><ele>206.0</ele><time>2026-04-25T11:32:21Z</time></trkpt><trkpt lat="45.23356549717618" lon="7.831241713764626"><ele>206.0</ele><time>2026-04-25T11:32:22Z</time></trkpt><trkpt lat="45.23365377169708" lon="7.831229755498056"><ele>206.0</ele><time>2026-04-25T11:32:23Z</time></trkpt><trkpt lat="45.233757083812534" lon="7.831210423774628"><ele>206.0</ele><time>2026-04-25T11:32:24Z</time></trkpt><trkpt lat="45.233849735234756" lon="7.831203575842973"><ele>206.0</ele><time>2026-04-25T11:32:25Z</time></trkpt><trkpt lat="45.23396704395142" lon="7.831178008379545"><ele>206.0</ele><time>2026-04-25T11:32:26Z</time></trkpt><trkpt lat="45.234067343475616" lon="7.831168311616608"><ele>206.0</ele><time>2026-04-25T11:32:27Z</time></trkpt><trkpt lat="45.234169286005944" lon="7.83115061170976"><ele>206.0</ele><time>2026-04-25T11:32:28Z</time></trkpt><trkpt lat="45.23426851778427" lon="7.831138205392858"><ele>206.0</ele><time>2026-04-25T11:32:29Z</time></trkpt><trkpt lat="45.234373870341784" lon="7.831123474167947"><ele>206.0</ele><time>2026-04-25T11:32:30Z</time></trkpt><trkpt lat="45.234463658397665" lon="7.831125285940134"><ele>206.0</ele><time>2026-04-25T11:32:31Z</time></trkpt><trkpt lat="45.234568995445585" lon="7.831116205473061"><ele>206.0</ele><time>2026-04-25T11:32:32Z</time></trkpt><trkpt lat="45.234669749161185" lon="7.831099212838358"><ele>206.0</ele><time>2026-04-25T11:32:33Z</time></trkpt><trkpt lat="45.23477131386999" lon="7.831102771294451"><ele>206.0</ele><time>2026-04-25T11:32:34Z</time></trkpt><trkpt lat="45.23488234418948" lon="7.831074492131807"><ele>206.0</ele><time>2026-04-25T11:32:35Z</time></trkpt><trkpt lat="45.23498155631982" lon="7.8310903590862155"><ele>206.0</ele><time>2026-04-25T11:32:36Z</time></trkpt><trkpt lat="45.235089008795306" lon="7.831078956878739"><ele>206.0</ele><time>2026-04-25T11:32:37Z</time></trkpt><trkpt lat="45.23520635143709" lon="7.83105305502826"><ele>206.0</ele><time>2026-04-25T11:32:38Z</time></trkpt><trkpt lat="45.23532206807204" lon="7.831041109208828"><ele>206.0</ele><time>2026-04-25T11:32:39Z</time></trkpt><trkpt lat="45.23543141717762" lon="7.831026104581647"><ele>206.0</ele><time>2026-04-25T11:32:40Z</time></trkpt><trkpt lat="45.23553913338995" lon="7.831025405046441"><ele>206.0</ele><time>2026-04-25T11:32:41Z</time></trkpt><trkpt lat="45.23565348557671" lon="7.831013822186518"><ele>206.0</ele><time>2026-04-25T11:32:42Z</time></trkpt><trkpt lat="45.235766740361974" lon="7.83099409892845"><ele>206.0</ele><time>2026-04-25T11:32:43Z</time></trkpt><trkpt lat="45.235873253880094" lon="7.830985488494809"><ele>206.0</ele><time>2026-04-25T11:32:44Z</time></trkpt><trkpt lat="45.23598180035913" lon="7.830965062381097"><ele>206.4</ele><time>2026-04-25T11:32:45Z</time></trkpt><trkpt lat="45.23609816945849" lon="7.830939259108299"><ele>206.8</ele><time>2026-04-25T11:32:46Z</time></trkpt><trkpt lat="45.23618383888953" lon="7.830936865537787"><ele>207.20000000000002</ele><time>2026-04-25T11:32:47Z</time></trkpt><trkpt lat="45.23625617511461" lon="7.830924970080565"><ele>207.60000000000002</ele><time>2026-04-25T11:32:48Z</time></trkpt><trkpt lat="45.23636842897126" lon="7.830859657240619"><ele>208.0</ele><time>2026-04-25T11:32:50Z</time></trkpt><trkpt lat="45.23641942185075" lon="7.830791994556273"><ele>207.99999999999997</ele><time>2026-04-25T11:32:51Z</time></trkpt><trkpt lat="45.236442525068355" lon="7.83067956690689"><ele>208.0</ele><time>2026-04-25T11:32:52Z</time></trkpt><trkpt lat="45.23643303161794" lon="7.830559465760921"><ele>208.0</ele><time>2026-04-25T11:32:53Z</time></trkpt><trkpt lat="45.236433483616494" lon="7.83043644303853"><ele>208.0</ele><time>2026-04-25T11:32:54Z</time></trkpt><trkpt lat="45.23642846662931" lon="7.830310170477549"><ele>207.99999999999997</ele><time>2026-04-25T11:32:55Z</time></trkpt><trkpt lat="45.23642202792502" lon="7.8301796161179125"><ele>208.0</ele><time>2026-04-25T11:32:56Z</time></trkpt><trkpt lat="45.236411691491384" lon="7.829908069495603"><ele>207.60000000000002</ele><time>2026-04-25T11:32:57.999Z</time></trkpt><trkpt lat="45.2364074428006" lon="7.829753217190925"><ele>207.20000000000002</ele><time>2026-04-25T11:32:58.999Z</time></trkpt><trkpt lat="45.23640523402902" lon="7.829599861747899"><ele>206.8</ele><time>2026-04-25T11:32:59.999Z</time></trkpt><trkpt lat="45.23640557530003" lon="7.829449233166252"><ele>206.4</ele><time>2026-04-25T11:33:00.999Z</time></trkpt><trkpt lat="45.2364088411445" lon="7.8292947645206405"><ele>206.0</ele><time>2026-04-25T11:33:01.999Z</time></trkpt><trkpt lat="45.2364108353488" lon="7.829146214883279"><ele>206.00000000000003</ele><time>2026-04-25T11:33:02.999Z</time></trkpt><trkpt lat="45.23640538301267" lon="7.8289891907851485"><ele>206.0</ele><time>2026-04-25T11:33:03.999Z</time></trkpt><trkpt lat="45.236390701561" lon="7.828848361937358"><ele>206.0</ele><time>2026-04-25T11:33:04.999Z</time></trkpt><trkpt lat="45.236372460137325" lon="7.828731328699028"><ele>206.0</ele><time>2026-04-25T11:33:05.999Z</time></trkpt><trkpt lat="45.23635607815823" lon="7.828631345760596"><ele>206.00000000000003</ele><time>2026-04-25T11:33:06.999Z</time></trkpt><trkpt lat="45.236340127444905" lon="7.828540946289522"><ele>206.0</ele><time>2026-04-25T11:33:07.999Z</time></trkpt><trkpt lat="45.23631569117634" lon="7.828402455663945"><ele>206.00000000000003</ele><time>2026-04-25T11:33:09.999Z</time></trkpt><trkpt lat="45.23629817944252" lon="7.8283032092155915"><ele>206.0</ele><time>2026-04-25T11:33:11.999Z</time></trkpt><trkpt lat="45.236317206027906" lon="7.828411040956941"><ele>206.0</ele><time>2026-04-25T11:33:23.999Z</time></trkpt><trkpt lat="45.23633833787596" lon="7.828530803468474"><ele>206.0</ele><time>2026-04-25T11:33:28Z</time></trkpt><trkpt lat="45.23635663879865" lon="7.828634522259629"><ele>206.00000000000003</ele><time>2026-04-25T11:33:30Z</time></trkpt><trkpt lat="45.23637283117433" lon="7.828733843430311"><ele>206.0</ele><time>2026-04-25T11:33:38Z</time></trkpt><trkpt lat="45.23639408804409" lon="7.82887790939637"><ele>206.0</ele><time>2026-04-25T11:33:41Z</time></trkpt><trkpt lat="45.236404959649526" lon="7.828983083288228"><ele>206.0</ele><time>2026-04-25T11:33:43Z</time></trkpt><trkpt lat="45.23659704831014" lon="7.828995368958024"><ele>206.0</ele><time>2026-04-25T11:33:47Z</time></trkpt><trkpt lat="45.236671062843314" lon="7.8289889963282455"><ele>206.0</ele><time>2026-04-25T11:33:48Z</time></trkpt><trkpt lat="45.236761180304505" lon="7.828990577735897"><ele>206.0</ele><time>2026-04-25T11:33:49Z</time></trkpt><trkpt lat="45.2368702507728" lon="7.8289890175624555"><ele>206.20000000000002</ele><time>2026-04-25T11:33:50Z</time></trkpt><trkpt lat="45.23696170422202" lon="7.828987742848835"><ele>206.4</ele><time>2026-04-25T11:33:51Z</time></trkpt><trkpt lat="45.237063015247614" lon="7.82898883260346"><ele>206.6</ele><time>2026-04-25T11:33:52Z</time></trkpt><trkpt lat="45.23716299624651" lon="7.828987137233686"><ele>206.8</ele><time>2026-04-25T11:33:53Z</time></trkpt><trkpt lat="45.23726598839857" lon="7.828979870648007"><ele>207.0</ele><time>2026-04-25T11:33:54Z</time></trkpt><trkpt lat="45.23736695412468" lon="7.828976210267179"><ele>207.6</ele><time>2026-04-25T11:33:55Z</time></trkpt><trkpt lat="45.23746673024844" lon="7.8289751195449995"><ele>208.2</ele><time>2026-04-25T11:33:56Z</time></trkpt><trkpt lat="45.23757169783906" lon="7.8289741433088516"><ele>208.8</ele><time>2026-04-25T11:33:57Z</time></trkpt><trkpt lat="45.237672089166125" lon="7.828974353452918"><ele>209.4</ele><time>2026-04-25T11:33:58Z</time></trkpt><trkpt lat="45.237775241269865" lon="7.828974137455547"><ele>210.0</ele><time>2026-04-25T11:33:59Z</time></trkpt><trkpt lat="45.237880225465815" lon="7.828979192209429"><ele>210.0</ele><time>2026-04-25T11:34:00Z</time></trkpt><trkpt lat="45.23797333913404" lon="7.8289801441177955"><ele>210.0</ele><time>2026-04-25T11:34:01Z</time></trkpt><trkpt lat="45.23805412921522" lon="7.828981223750638"><ele>210.0</ele><time>2026-04-25T11:34:02Z</time></trkpt><trkpt lat="45.2381227140442" lon="7.828973831745273"><ele>210.0</ele><time>2026-04-25T11:34:03Z</time></trkpt><trkpt lat="45.23820891440526" lon="7.828865624531638"><ele>210.0</ele><time>2026-04-25T11:34:05Z</time></trkpt><trkpt lat="45.2382288011603" lon="7.828764298061564"><ele>210.0</ele><time>2026-04-25T11:34:06Z</time></trkpt><trkpt lat="45.23825793302917" lon="7.828663180185192"><ele>209.66666666666666</ele><time>2026-04-25T11:34:07Z</time></trkpt><trkpt lat="45.2383055606115" lon="7.828597665553821"><ele>209.33333333333331</ele><time>2026-04-25T11:34:08Z</time></trkpt><trkpt lat="45.23837587047077" lon="7.828572503437249"><ele>209.0</ele><time>2026-04-25T11:34:09Z</time></trkpt><trkpt lat="45.238457157617766" lon="7.828585533704664"><ele>208.66666666666666</ele><time>2026-04-25T11:34:10Z</time></trkpt><trkpt lat="45.238554912822515" lon="7.82861283309272"><ele>208.33333333333331</ele><time>2026-04-25T11:34:11Z</time></trkpt><trkpt lat="45.2386473923376" lon="7.828636784736028"><ele>208.0</ele><time>2026-04-25T11:34:12Z</time></trkpt><trkpt lat="45.23873561946401" lon="7.828646631486659"><ele>208.0</ele><time>2026-04-25T11:34:13Z</time></trkpt><trkpt lat="45.238839606364564" lon="7.828665294213876"><ele>208.0</ele><time>2026-04-25T11:34:14Z</time></trkpt><trkpt lat="45.23894456562003" lon="7.82867863234416"><ele>208.0</ele><time>2026-04-25T11:34:15Z</time></trkpt><trkpt lat="45.239039794885265" lon="7.828695529121312"><ele>208.0</ele><time>2026-04-25T11:34:16Z</time></trkpt><trkpt lat="45.239122793006594" lon="7.828705569189727"><ele>208.0</ele><time>2026-04-25T11:34:17Z</time></trkpt><trkpt lat="45.23919320099253" lon="7.828704829377736"><ele>207.99999999999997</ele><time>2026-04-25T11:34:18Z</time></trkpt><trkpt lat="45.239253893561006" lon="7.828660082048541"><ele>208.0</ele><time>2026-04-25T11:34:19Z</time></trkpt><trkpt lat="45.239293608181434" lon="7.828575335681721"><ele>208.0</ele><time>2026-04-25T11:34:20Z</time></trkpt><trkpt lat="45.23934785178097" lon="7.8284795612660645"><ele>208.0</ele><time>2026-04-25T11:34:21.001Z</time></trkpt><trkpt lat="45.23940676550397" lon="7.828391503214887"><ele>207.99999999999997</ele><time>2026-04-25T11:34:22.001Z</time></trkpt><trkpt lat="45.239476332905184" lon="7.8282868629109235"><ele>208.0</ele><time>2026-04-25T11:34:23.001Z</time></trkpt><trkpt lat="45.239548622322694" lon="7.828178413215952"><ele>208.0</ele><time>2026-04-25T11:34:24.001Z</time></trkpt><trkpt lat="45.23961216553386" lon="7.828071332309062"><ele>208.0</ele><time>2026-04-25T11:34:25.001Z</time></trkpt><trkpt lat="45.2396688564651" lon="7.827935561152605"><ele>208.0</ele><time>2026-04-25T11:34:26.001Z</time></trkpt><trkpt lat="45.23970893374716" lon="7.827789555656511"><ele>208.0</ele><time>2026-04-25T11:34:27.001Z</time></trkpt><trkpt lat="45.23974416716435" lon="7.827649026221551"><ele>208.0</ele><time>2026-04-25T11:34:28.001Z</time></trkpt><trkpt lat="45.239783637448234" lon="7.827505835107921"><ele>208.33333333333331</ele><time>2026-04-25T11:34:29.001Z</time></trkpt><trkpt lat="45.23982351172805" lon="7.827380032933497"><ele>208.66666666666666</ele><time>2026-04-25T11:34:30.001Z</time></trkpt><trkpt lat="45.23985822879191" lon="7.827273260688216"><ele>209.0</ele><time>2026-04-25T11:34:31.001Z</time></trkpt><trkpt lat="45.23988927751376" lon="7.827177020156723"><ele>209.33333333333331</ele><time>2026-04-25T11:34:32.001Z</time></trkpt><trkpt lat="45.239936593332985" lon="7.827069808051279"><ele>209.66666666666666</ele><time>2026-04-25T11:34:34.001Z</time></trkpt><trkpt lat="45.23997260257136" lon="7.826991446793177"><ele>210.0</ele><time>2026-04-25T11:34:36.001Z</time></trkpt><trkpt lat="45.24003095975509" lon="7.826871457686023"><ele>210.0</ele><time>2026-04-25T11:34:39.001Z</time></trkpt><trkpt lat="45.24007397816463" lon="7.826806181772169"><ele>210.0</ele><time>2026-04-25T11:34:40.001Z</time></trkpt><trkpt lat="45.24011825694416" lon="7.826713065657884"><ele>210.0</ele><time>2026-04-25T11:34:41.001Z</time></trkpt><trkpt lat="45.2401546611493" lon="7.826597778537515"><ele>210.0</ele><time>2026-04-25T11:34:42.001Z</time></trkpt><trkpt lat="45.24017887894745" lon="7.82647999593842"><ele>210.0</ele><time>2026-04-25T11:34:43.001Z</time></trkpt><trkpt lat="45.240200594616894" lon="7.826341059752918"><ele>210.0</ele><time>2026-04-25T11:34:44.001Z</time></trkpt><trkpt lat="45.240213119610814" lon="7.826206289012978"><ele>210.0</ele><time>2026-04-25T11:34:45.001Z</time></trkpt><trkpt lat="45.24022883702276" lon="7.826053807366879"><ele>210.0</ele><time>2026-04-25T11:34:46.001Z</time></trkpt><trkpt lat="45.24024358319783" lon="7.8258954116457025"><ele>210.0</ele><time>2026-04-25T11:34:47.001Z</time></trkpt><trkpt lat="45.24025472259893" lon="7.825733186574115"><ele>210.0</ele><time>2026-04-25T11:34:48.001Z</time></trkpt><trkpt lat="45.240261744365405" lon="7.82557792479092"><ele>210.0</ele><time>2026-04-25T11:34:49.001Z</time></trkpt><trkpt lat="45.24026741143803" lon="7.825425446001377"><ele>210.0</ele><time>2026-04-25T11:34:50.001Z</time></trkpt><trkpt lat="45.240264790002584" lon="7.825276596042648"><ele>210.0</ele><time>2026-04-25T11:34:51.001Z</time></trkpt><trkpt lat="45.24025473961361" lon="7.825123353266372"><ele>210.0</ele><time>2026-04-25T11:34:52.001Z</time></trkpt><trkpt lat="45.24023045816565" lon="7.824986963596215"><ele>210.0</ele><time>2026-04-25T11:34:53.001Z</time></trkpt><trkpt lat="45.24018605167844" lon="7.824875323426473"><ele>210.0</ele><time>2026-04-25T11:34:54.001Z</time></trkpt><trkpt lat="45.24013612011023" lon="7.824742325789418"><ele>210.0</ele><time>2026-04-25T11:34:55.001Z</time></trkpt><trkpt lat="45.24009908736637" lon="7.824635061779527"><ele>210.0</ele><time>2026-04-25T11:34:56.001Z</time></trkpt><trkpt lat="45.240067798960425" lon="7.824535929917146"><ele>210.0</ele><time>2026-04-25T11:34:57.001Z</time></trkpt><trkpt lat="45.24005475226783" lon="7.824427216748241"><ele>210.0</ele><time>2026-04-25T11:34:58.001Z</time></trkpt><trkpt lat="45.240059836589886" lon="7.8243273780203895"><ele>210.0</ele><time>2026-04-25T11:34:59.001Z</time></trkpt><trkpt lat="45.240085896648516" lon="7.824232929177994"><ele>210.0</ele><time>2026-04-25T11:35:00.001Z</time></trkpt><trkpt lat="45.240139484309566" lon="7.824157430729313"><ele>210.16666666666666</ele><time>2026-04-25T11:35:01.001Z</time></trkpt><trkpt lat="45.24020968688286" lon="7.824108658336053"><ele>210.33333333333331</ele><time>2026-04-25T11:35:02.001Z</time></trkpt><trkpt lat="45.24028476482637" lon="7.824057711742246"><ele>210.5</ele><time>2026-04-25T11:35:03.001Z</time></trkpt><trkpt lat="45.24034787516318" lon="7.824005256503519"><ele>210.66666666666666</ele><time>2026-04-25T11:35:04Z</time></trkpt><trkpt lat="45.24042966170584" lon="7.823932956756098"><ele>210.83333333333331</ele><time>2026-04-25T11:35:05Z</time></trkpt><trkpt lat="45.24050258565208" lon="7.823869204852762"><ele>211.0</ele><time>2026-04-25T11:35:06Z</time></trkpt><trkpt lat="45.24058622083054" lon="7.823800134526766"><ele>210.99999999999997</ele><time>2026-04-25T11:35:07Z</time></trkpt><trkpt lat="45.24065076092403" lon="7.823737083752009"><ele>211.0</ele><time>2026-04-25T11:35:08Z</time></trkpt><trkpt lat="45.24068703204701" lon="7.82365414204346"><ele>211.0</ele><time>2026-04-25T11:35:09Z</time></trkpt><trkpt lat="45.2407059443546" lon="7.823553336915172"><ele>211.0</ele><time>2026-04-25T11:35:10Z</time></trkpt><trkpt lat="45.24071669209952" lon="7.823433495198579"><ele>210.99999999999997</ele><time>2026-04-25T11:35:11Z</time></trkpt><trkpt lat="45.24073090946766" lon="7.823312003986657"><ele>211.0</ele><time>2026-04-25T11:35:12Z</time></trkpt><trkpt lat="45.24075267462596" lon="7.8231981258820165"><ele>211.0</ele><time>2026-04-25T11:35:13Z</time></trkpt><trkpt lat="45.24078139900346" lon="7.823044940563477"><ele>211.0</ele><time>2026-04-25T11:35:14Z</time></trkpt><trkpt lat="45.24080791841088" lon="7.822915972470359"><ele>211.0</ele><time>2026-04-25T11:35:15Z</time></trkpt><trkpt lat="45.24085256777482" lon="7.822782749901963"><ele>211.0</ele><time>2026-04-25T11:35:16Z</time></trkpt><trkpt lat="45.24090154182429" lon="7.822663492578587"><ele>211.0</ele><time>2026-04-25T11:35:17Z</time></trkpt><trkpt lat="45.24095296108163" lon="7.822582782144959"><ele>210.8</ele><time>2026-04-25T11:35:18Z</time></trkpt><trkpt lat="45.24103370203306" lon="7.822505638809853"><ele>210.60000000000002</ele><time>2026-04-25T11:35:19Z</time></trkpt><trkpt lat="45.24111732184011" lon="7.82244945915453"><ele>210.4</ele><time>2026-04-25T11:35:20Z</time></trkpt><trkpt lat="45.241208358112054" lon="7.822407464290726"><ele>210.2</ele><time>2026-04-25T11:35:21Z</time></trkpt><trkpt lat="45.24131329298436" lon="7.822364086804549"><ele>210.0</ele><time>2026-04-25T11:35:22Z</time></trkpt><trkpt lat="45.24140630509737" lon="7.8223147161856295"><ele>210.8</ele><time>2026-04-25T11:35:23Z</time></trkpt><trkpt lat="45.24151214496311" lon="7.822256330316183"><ele>211.6</ele><time>2026-04-25T11:35:24Z</time></trkpt><trkpt lat="45.24161239714015" lon="7.822198902707887"><ele>212.39999999999998</ele><time>2026-04-25T11:35:25Z</time></trkpt><trkpt lat="45.24170319354167" lon="7.822138540278699"><ele>213.2</ele><time>2026-04-25T11:35:26Z</time></trkpt><trkpt lat="45.24178695342605" lon="7.822069817698746"><ele>214.0</ele><time>2026-04-25T11:35:27Z</time></trkpt><trkpt lat="45.24186461267396" lon="7.821998288823006"><ele>214.0</ele><time>2026-04-25T11:35:28Z</time></trkpt><trkpt lat="45.24195022011998" lon="7.821920851073593"><ele>213.99999999999997</ele><time>2026-04-25T11:35:29Z</time></trkpt><trkpt lat="45.24203480290604" lon="7.821832311066911"><ele>213.99999999999997</ele><time>2026-04-25T11:35:30Z</time></trkpt><trkpt lat="45.24210880020181" lon="7.8217545713317"><ele>214.0</ele><time>2026-04-25T11:35:31Z</time></trkpt><trkpt lat="45.242195646754354" lon="7.821675186082666"><ele>214.0</ele><time>2026-04-25T11:35:32Z</time></trkpt><trkpt lat="45.24225716654607" lon="7.821603176548385"><ele>213.99999999999997</ele><time>2026-04-25T11:35:33Z</time></trkpt><trkpt lat="45.24232985222116" lon="7.821527928373769"><ele>214.0</ele><time>2026-04-25T11:35:34Z</time></trkpt><trkpt lat="45.24238200178071" lon="7.821449557547131"><ele>214.0</ele><time>2026-04-25T11:35:35Z</time></trkpt><trkpt lat="45.24242642699377" lon="7.821358938264282"><ele>214.0</ele><time>2026-04-25T11:35:36Z</time></trkpt><trkpt lat="45.242434294295215" lon="7.821234001598162"><ele>213.99999999999997</ele><time>2026-04-25T11:35:37Z</time></trkpt><trkpt lat="45.24242363497373" lon="7.82110320114767"><ele>214.0</ele><time>2026-04-25T11:35:38Z</time></trkpt><trkpt lat="45.242410302189406" lon="7.820975860350994"><ele>214.0</ele><time>2026-04-25T11:35:39Z</time></trkpt><trkpt lat="45.242411375218005" lon="7.820825549083057"><ele>213.99999999999997</ele><time>2026-04-25T11:35:40Z</time></trkpt><trkpt lat="45.24241236247397" lon="7.820711091899527"><ele>213.99999999999997</ele><time>2026-04-25T11:35:41Z</time></trkpt><trkpt lat="45.24243564389363" lon="7.820565156203732"><ele>214.0</ele><time>2026-04-25T11:35:42Z</time></trkpt><trkpt lat="45.24246854239088" lon="7.820440967053766"><ele>214.0</ele><time>2026-04-25T11:35:43Z</time></trkpt><trkpt lat="45.24249706480127" lon="7.820314470034212"><ele>214.0</ele><time>2026-04-25T11:35:44Z</time></trkpt><trkpt lat="45.242511159308556" lon="7.820180008539439"><ele>213.99999999999997</ele><time>2026-04-25T11:35:45Z</time></trkpt><trkpt lat="45.24253457550103" lon="7.820067528144836"><ele>213.99999999999997</ele><time>2026-04-25T11:35:46Z</time></trkpt><trkpt lat="45.242614589800525" lon="7.819987603441097"><ele>214.0</ele><time>2026-04-25T11:35:48Z</time></trkpt><trkpt lat="45.24267739326686" lon="7.819957358660677"><ele>214.0</ele><time>2026-04-25T11:35:49.001Z</time></trkpt><trkpt lat="45.24271387742105" lon="7.819765725066615"><ele>213.79999999999998</ele><time>2026-04-25T11:35:51.001Z</time></trkpt><trkpt lat="45.24274306547" lon="7.819627630568956"><ele>213.59999999999997</ele><time>2026-04-25T11:35:52.001Z</time></trkpt><trkpt lat="45.242755094815784" lon="7.8194768546705005"><ele>213.4</ele><time>2026-04-25T11:35:53.001Z</time></trkpt><trkpt lat="45.24275369193485" lon="7.819315728561359"><ele>213.2</ele><time>2026-04-25T11:35:54.001Z</time></trkpt><trkpt lat="45.24276774478471" lon="7.819152384784093"><ele>213.0</ele><time>2026-04-25T11:35:55.001Z</time></trkpt><trkpt lat="45.24278899900563" lon="7.818986332026662"><ele>213.0</ele><time>2026-04-25T11:35:56.001Z</time></trkpt><trkpt lat="45.24280362006999" lon="7.818838126176304"><ele>213.0</ele><time>2026-04-25T11:35:57.001Z</time></trkpt><trkpt lat="45.24281758674672" lon="7.818674858300823"><ele>213.0</ele><time>2026-04-25T11:35:58.001Z</time></trkpt><trkpt lat="45.24282823963348" lon="7.8185038465868235"><ele>213.0</ele><time>2026-04-25T11:35:59.001Z</time></trkpt><trkpt lat="45.24285241088971" lon="7.818340068325492"><ele>213.0</ele><time>2026-04-25T11:36:00.001Z</time></trkpt><trkpt lat="45.242865432307575" lon="7.818168060634091"><ele>213.0</ele><time>2026-04-25T11:36:01.001Z</time></trkpt><trkpt lat="45.24286141594395" lon="7.817997899313138"><ele>213.0</ele><time>2026-04-25T11:36:02.001Z</time></trkpt><trkpt lat="45.242873449520964" lon="7.817832659236674"><ele>213.0</ele><time>2026-04-25T11:36:03.001Z</time></trkpt><trkpt lat="45.24289059190861" lon="7.81768867260281"><ele>212.60000000000002</ele><time>2026-04-25T11:36:04.001Z</time></trkpt><trkpt lat="45.24292998623091" lon="7.817581283971076"><ele>212.20000000000002</ele><time>2026-04-25T11:36:05.001Z</time></trkpt><trkpt lat="45.242962640529264" lon="7.817431189689117"><ele>211.8</ele><time>2026-04-25T11:36:06.001Z</time></trkpt><trkpt lat="45.24302789388543" lon="7.817282021933767"><ele>211.4</ele><time>2026-04-25T11:36:07.001Z</time></trkpt><trkpt lat="45.24308723486025" lon="7.817161524410633"><ele>211.0</ele><time>2026-04-25T11:36:08.001Z</time></trkpt><trkpt lat="45.24315474988712" lon="7.817036679823252"><ele>211.4</ele><time>2026-04-25T11:36:09.001Z</time></trkpt><trkpt lat="45.243242195699025" lon="7.816955512761309"><ele>211.8</ele><time>2026-04-25T11:36:10.001Z</time></trkpt><trkpt lat="45.24332410141726" lon="7.816867060161974"><ele>212.20000000000002</ele><time>2026-04-25T11:36:11.001Z</time></trkpt><trkpt lat="45.24340681240988" lon="7.81675550496372"><ele>212.60000000000002</ele><time>2026-04-25T11:36:12.001Z</time></trkpt><trkpt lat="45.24350386969016" lon="7.816673370752689"><ele>213.0</ele><time>2026-04-25T11:36:13.001Z</time></trkpt><trkpt lat="45.243584171468655" lon="7.816602733191467"><ele>213.0</ele><time>2026-04-25T11:36:14.001Z</time></trkpt><trkpt lat="45.24365995165802" lon="7.8165576452448375"><ele>213.0</ele><time>2026-04-25T11:36:15.001Z</time></trkpt><trkpt lat="45.243721062431035" lon="7.8164794981683245"><ele>213.0</ele><time>2026-04-25T11:36:16.001Z</time></trkpt><trkpt lat="45.243792800764815" lon="7.816428217179044"><ele>213.0</ele><time>2026-04-25T11:36:17.001Z</time></trkpt><trkpt lat="45.243850687390385" lon="7.816368838080256"><ele>213.0</ele><time>2026-04-25T11:36:18.001Z</time></trkpt><trkpt lat="45.2439166381506" lon="7.816308453246494"><ele>213.0</ele><time>2026-04-25T11:36:19.001Z</time></trkpt><trkpt lat="45.24397928432695" lon="7.8162509737528225"><ele>213.8</ele><time>2026-04-25T11:36:20.001Z</time></trkpt><trkpt lat="45.244051039985564" lon="7.8162338059529715"><ele>214.60000000000002</ele><time>2026-04-25T11:36:21.001Z</time></trkpt><trkpt lat="45.244181887397815" lon="7.816274684654305"><ele>215.39999999999998</ele><time>2026-04-25T11:36:23.001Z</time></trkpt><trkpt lat="45.244264592503" lon="7.816295376352948"><ele>216.2</ele><time>2026-04-25T11:36:24.001Z</time></trkpt><trkpt lat="45.24435191490765" lon="7.816317223230847"><ele>217.0</ele><time>2026-04-25T11:36:25.001Z</time></trkpt><trkpt lat="45.24444729182675" lon="7.816316910813315"><ele>216.99999999999997</ele><time>2026-04-25T11:36:26.001Z</time></trkpt><trkpt lat="45.24453011537178" lon="7.816329944070101"><ele>217.0</ele><time>2026-04-25T11:36:27.001Z</time></trkpt><trkpt lat="45.244639533959216" lon="7.8163007314806086"><ele>217.0</ele><time>2026-04-25T11:36:29.001Z</time></trkpt><trkpt lat="45.24469246660392" lon="7.816232324715577"><ele>217.0</ele><time>2026-04-25T11:36:30.001Z</time></trkpt><trkpt lat="45.24472670238603" lon="7.816127626772858"><ele>216.99999999999997</ele><time>2026-04-25T11:36:31.001Z</time></trkpt><trkpt lat="45.24475413472911" lon="7.815994090946887"><ele>217.0</ele><time>2026-04-25T11:36:32.001Z</time></trkpt><trkpt lat="45.244795957873656" lon="7.815862235545319"><ele>217.0</ele><time>2026-04-25T11:36:33.001Z</time></trkpt><trkpt lat="45.24483996357872" lon="7.815725554899003"><ele>217.0</ele><time>2026-04-25T11:36:34.001Z</time></trkpt><trkpt lat="45.2449022300421" lon="7.815595984429333"><ele>217.0</ele><time>2026-04-25T11:36:35.001Z</time></trkpt><trkpt lat="45.24494038441552" lon="7.815447775825369"><ele>217.0</ele><time>2026-04-25T11:36:36.001Z</time></trkpt><trkpt lat="45.244981424131275" lon="7.815309970400609"><ele>217.0</ele><time>2026-04-25T11:36:37.001Z</time></trkpt><trkpt lat="45.24502096442098" lon="7.815174585542295"><ele>216.71428571428572</ele><time>2026-04-25T11:36:38.001Z</time></trkpt><trkpt lat="45.24505763822143" lon="7.81506499667346"><ele>216.42857142857144</ele><time>2026-04-25T11:36:39.001Z</time></trkpt><trkpt lat="45.245109702027776" lon="7.814989633330658"><ele>216.14285714285714</ele><time>2026-04-25T11:36:40.001Z</time></trkpt><trkpt lat="45.24517119890048" lon="7.8149591265016936"><ele>215.85714285714286</ele><time>2026-04-25T11:36:41.001Z</time></trkpt><trkpt lat="45.24524869135514" lon="7.815002973582532"><ele>215.57142857142858</ele><time>2026-04-25T11:36:43.001Z</time></trkpt><trkpt lat="45.24531552842256" lon="7.814996791046491"><ele>215.28571428571428</ele><time>2026-04-25T11:36:50.001Z</time></trkpt><trkpt lat="45.24524339305409" lon="7.814989409375033"><ele>215.0</ele><time>2026-04-25T11:37:06.002Z</time></trkpt><trkpt lat="45.245121925620516" lon="7.814958256156979"><ele>215.0</ele><time>2026-04-25T11:37:07.002Z</time></trkpt><trkpt lat="45.245012681605" lon="7.815149245522488"><ele>215.0</ele><time>2026-04-25T11:37:09.002Z</time></trkpt><trkpt lat="45.24497175053896" lon="7.815262862243086"><ele>215.0</ele><time>2026-04-25T11:37:10Z</time></trkpt><trkpt lat="45.24492582234156" lon="7.8154326384061195"><ele>215.0</ele><time>2026-04-25T11:37:11Z</time></trkpt><trkpt lat="45.244856803560886" lon="7.81564437096221"><ele>215.0</ele><time>2026-04-25T11:37:12Z</time></trkpt><trkpt lat="45.24478167028524" lon="7.815851263839406"><ele>215.0</ele><time>2026-04-25T11:37:13Z</time></trkpt><trkpt lat="45.244728695734594" lon="7.816022847936397"><ele>215.0</ele><time>2026-04-25T11:37:14Z</time></trkpt><trkpt lat="45.24468701420043" lon="7.816159924264434"><ele>215.0</ele><time>2026-04-25T11:37:15Z</time></trkpt><trkpt lat="45.244641460492865" lon="7.816264706521638"><ele>215.66666666666669</ele><time>2026-04-25T11:37:16Z</time></trkpt><trkpt lat="45.244562974847724" lon="7.816316760588576"><ele>216.33333333333331</ele><time>2026-04-25T11:37:17Z</time></trkpt><trkpt lat="45.2443103780899" lon="7.816258976772083"><ele>217.0</ele><time>2026-04-25T11:37:20Z</time></trkpt><trkpt lat="45.24416212480337" lon="7.816221885813482"><ele>217.0</ele><time>2026-04-25T11:37:21Z</time></trkpt><trkpt lat="45.24403599518304" lon="7.816201165468381"><ele>217.0</ele><time>2026-04-25T11:37:22Z</time></trkpt><trkpt lat="45.24394158576624" lon="7.816211238702009"><ele>213.0</ele><time>2026-04-25T11:37:23Z</time></trkpt></trkseg></trk></gpx>